Pagrindinis puslapis
METAR-TAF:

METAR-TAF

Oro uostai :

Damamas, Saudo Arabija

platuma: 26-28N, ilguma: 049-47E, Aukštis: 22 m

Dabartinis oras

Ataskaita buvo paskelbta 57 minutes, ne 05:00 UTC
Vėjas 7 kt iš Pietų/Pietryčių
Temperatūra 34°C
Drėgmė 28%
Slėgis 1003 hPa
Matomumas 10 km arba daugiau
nėra debesų žemiau 1500 m ir nėra kamuolinių lietaus debesų

METAR: OEDF 220500Z 15007KT CAVOK 34/13 Q1003 NOSIG

Laikas: 08:57 (05:57 UTC)

Prognozė

Ataskaita buvo paskelbta 2 valandos ir 57 minutes, ne 03:00 UTC
Prognozė galioja nuo 22 metu 06 UTC su 23 metu 12 UTC
Vėjas 8 kt iš Pietryčių
Matomumas 10 km arba daugiau
nėra debesų žemiau 1500 m ir nėra kamuolinių lietaus debesų
Tapsmas
nuo 22 metu 10 UTC su 22 metu 12 UTC
Vėjas 15 kt iš Šiaurės Rytų
Tapsmas
nuo 22 metu 19 UTC su 22 metu 21 UTC
Vėjas 5 kt iš Pietų/Pietvakarių
Tapsmas
nuo 23 metu 00 UTC su 23 metu 02 UTC
Vėjas 5 kt iš Šiaurės/Šiaurės Vakarų

TAF: OEDF 220300Z 2206/2312 14008KT CAVOK BECMG 2210/2212 05015KT BECMG 2219/2221 20005KT BECMG 2300/2302 33005KT

Orai ataskaitas ir orų prognozės (METAR, TAF).

turimą stotys yra geltonos ir raudonos taškus žemėlapyje.

Perkelti pele per norėdami pamatyti stoties vardą.

Tada spustelėkite, norėdami matyti oro stebėjimo ir prognozės.

Norėdami pakeisti žemėlapį: spustelėkite ant žalios mygtukų su juodo kryžiaus žemyn,; žalią mygtuką su brūkšneliu, jei norite nutolinti; arba žalių rodyklių gretimoms žemėlapius.


METAR-TAF: